Time;durP1;ratioP1;P1;durP2;ratioP2;P2;SDS_P1;SDS_P2;PMS_P1;PMS_P2;Temp;Humidity;BMP_temperature;BMP_pressure;BME280_temperature;BME280_humidity;BME280_pressure;Samples;Min_cycle;Max_cycle;Signal;HPM_P1;HPM_P2
2021/05/15 00:00:58;;;;;;;1.75;1.30;;;;;;;;;;2090412;28;20031;-71
2021/05/15 00:01:58;;;;;;;2.20;1.30;;;;;;;;;;2090615;28;20476;-70
2021/05/15 00:02:59;;;;;;;4.28;1.50;;;;;;;;;;2090458;28;20029;-71
2021/05/15 00:04:01;;;;;;;2.92;1.58;;;;;;;;;;2090572;28;20071;-72
2021/05/15 00:05:02;;;;;;;4.00;1.90;;;;;;;;;;2090297;28;20049;-71
2021/05/15 00:06:03;;;;;;;4.75;2.00;;;;;;;;;;2090328;28;20132;-71
2021/05/15 00:07:04;;;;;;;6.93;2.38;;;;;;;;;;2090381;28;20032;-71
2021/05/15 00:08:04;;;;;;;10.25;2.08;;;;;;;;;;2090682;28;20470;-71
2021/05/15 00:09:05;;;;;;;4.38;1.95;;;;;;;;;;2090332;28;20476;-71
2021/05/15 00:10:06;;;;;;;5.18;1.75;;;;;;;;;;2090615;28;20025;-71
2021/05/15 00:11:06;;;;;;;3.20;1.83;;;;;;;;;;2090268;28;20187;-71
2021/05/15 00:12:07;;;;;;;4.07;1.90;;;;;;;;;;2098220;28;20052;-71
2021/05/15 00:13:07;;;;;;;2.78;1.90;;;;;;;;;;2097732;28;20024;-71
2021/05/15 00:14:08;;;;;;;5.97;2.13;;;;;;;;;;2090312;28;20384;-71
2021/05/15 00:15:10;;;;;;;5.78;1.80;;;;;;;;;;2090353;28;20502;-73
2021/05/15 00:16:11;;;;;;;6.15;2.10;;;;;;;;;;2090181;28;20046;-73
2021/05/15 00:17:11;;;;;;;3.60;1.80;;;;;;;;;;2090256;28;20078;-75
2021/05/15 00:18:12;;;;;;;3.67;1.70;;;;;;;;;;2089647;28;20037;-75
2021/05/15 00:19:12;;;;;;;5.65;1.98;;;;;;;;;;2089545;28;20031;-75
2021/05/15 00:20:15;;;;;;;3.42;1.88;;;;;;;;;;2087083;28;20033;-75
2021/05/15 00:21:15;;;;;;;5.28;2.05;;;;;;;;;;2087789;28;20408;-74
2021/05/15 00:22:16;;;;;;;3.85;1.80;;;;;;;;;;2087413;28;20080;-75
2021/05/15 00:23:16;;;;;;;3.30;1.70;;;;;;;;;;2089516;28;20016;-72
2021/05/15 00:24:17;;;;;;;5.55;1.98;;;;;;;;;;2089824;28;20032;-73
2021/05/15 00:25:18;;;;;;;3.65;1.70;;;;;;;;;;2090247;28;20025;-72
2021/05/15 00:26:19;;;;;;;2.97;1.88;;;;;;;;;;2090387;28;20021;-73
2021/05/15 00:27:19;;;;;;;3.88;1.80;;;;;;;;;;2090277;28;20045;-73
2021/05/15 00:28:19;;;;;;;2.78;1.73;;;;;;;;;;2090106;28;20029;-73
2021/05/15 00:29:20;;;;;;;4.47;1.70;;;;;;;;;;2090314;28;20028;-73
2021/05/15 00:30:20;;;;;;;5.53;2.00;;;;;;;;;;2090465;28;20116;-73
2021/05/15 00:31:21;;;;;;;3.55;1.63;;;;;;;;;;2090291;28;20060;-73
2021/05/15 00:32:21;;;;;;;9.02;1.90;;;;;;;;;;2090205;28;20029;-72
2021/05/15 00:33:22;;;;;;;4.68;1.90;;;;;;;;;;2090283;28;20032;-72
2021/05/15 00:34:22;;;;;;;8.13;1.92;;;;;;;;;;2090119;28;20025;-73
2021/05/15 00:35:22;;;;;;;4.22;1.70;;;;;;;;;;2089892;28;20033;-72
2021/05/15 00:36:23;;;;;;;3.13;1.70;;;;;;;;;;2090073;28;20029;-74
2021/05/15 00:37:23;;;;;;;4.05;1.63;;;;;;;;;;2090382;28;20451;-74
2021/05/15 00:38:23;;;;;;;3.47;1.80;;;;;;;;;;2090131;28;20413;-74
2021/05/15 00:39:24;;;;;;;3.40;1.67;;;;;;;;;;2090223;28;20043;-73
2021/05/15 00:40:24;;;;;;;3.58;1.65;;;;;;;;;;2090127;28;20025;-72
2021/05/15 00:41:24;;;;;;;4.35;1.75;;;;;;;;;;2090407;28;20052;-72
2021/05/15 00:42:25;;;;;;;2.53;1.63;;;;;;;;;;2089947;28;20051;-72
2021/05/15 00:43:27;;;;;;;3.85;1.70;;;;;;;;;;2089708;28;20041;-72
2021/05/15 00:45:28;;;;;;;3.40;1.80;;;;;;;;;;2090311;28;20043;-72
2021/05/15 00:46:28;;;;;;;3.35;2.15;;;;;;;;;;2090139;28;20075;-72
2021/05/15 00:47:28;;;;;;;4.18;1.88;;;;;;;;;;2090386;28;20025;-72
2021/05/15 00:48:29;;;;;;;4.82;2.00;;;;;;;;;;2090059;28;20111;-73
2021/05/15 00:49:29;;;;;;;3.40;1.88;;;;;;;;;;2090362;28;20379;-71
2021/05/15 00:50:30;;;;;;;3.08;1.67;;;;;;;;;;2089469;28;20551;-70
2021/05/15 00:51:31;;;;;;;3.33;1.63;;;;;;;;;;2090308;28;20472;-71
2021/05/15 00:52:34;;;;;;;3.45;2.20;;;;;;;;;;2090029;28;20055;-71
2021/05/15 00:53:34;;;;;;;4.25;2.20;;;;;;;;;;2089387;28;20033;-75
2021/05/15 00:54:36;;;;;;;3.83;2.33;;;;;;;;;;2089270;28;20091;-70
2021/05/15 00:55:37;;;;;;;4.78;2.00;;;;;;;;;;2090324;28;20060;-70
2021/05/15 00:56:38;;;;;;;4.22;2.10;;;;;;;;;;2089837;28;20480;-69
2021/05/15 00:57:40;;;;;;;4.35;2.30;;;;;;;;;;2089768;28;20090;-69
2021/05/15 00:58:40;;;;;;;6.10;2.22;;;;;;;;;;2090117;28;20032;-69
2021/05/15 00:59:40;;;;;;;4.43;2.15;;;;;;;;;;2090188;28;20028;-70
2021/05/15 01:00:41;;;;;;;4.38;2.03;;;;;;;;;;2090031;28;20040;-69
2021/05/15 01:01:41;;;;;;;6.47;2.40;;;;;;;;;;2090124;28;20024;-71
2021/05/15 01:02:42;;;;;;;7.60;2.22;;;;;;;;;;2090002;28;20167;-70
2021/05/15 01:03:43;;;;;;;4.65;1.95;;;;;;;;;;2090112;28;20032;-70
2021/05/15 01:04:43;;;;;;;4.80;1.90;;;;;;;;;;2090046;28;20542;-70
2021/05/15 01:05:43;;;;;;;6.65;2.30;;;;;;;;;;2089450;28;20029;-70
2021/05/15 01:06:44;;;;;;;8.43;2.60;;;;;;;;;;2090036;28;20029;-70
2021/05/15 01:07:45;;;;;;;7.68;2.10;;;;;;;;;;2089943;28;20079;-70
2021/05/15 01:08:46;;;;;;;3.25;2.00;;;;;;;;;;2088709;28;20064;-70
2021/05/15 01:09:46;;;;;;;5.30;1.92;;;;;;;;;;2088087;28;20044;-71
2021/05/15 01:10:46;;;;;;;4.70;2.30;;;;;;;;;;2089643;28;20036;-70
2021/05/15 01:11:47;;;;;;;4.93;2.47;;;;;;;;;;2089563;28;20029;-71
2021/05/15 01:12:53;;;;;;;3.70;1.90;;;;;;;;;;2089712;28;20035;-70
2021/05/15 01:13:57;;;;;;;4.68;2.03;;;;;;;;;;2089844;28;20041;-71
2021/05/15 01:14:58;;;;;;;4.60;2.05;;;;;;;;;;2089920;28;20554;-70
2021/05/15 01:15:59;;;;;;;4.60;2.03;;;;;;;;;;2089947;28;20033;-70
2021/05/15 01:17:00;;;;;;;3.08;2.00;;;;;;;;;;2090087;28;20029;-71
2021/05/15 01:18:00;;;;;;;2.88;1.88;;;;;;;;;;2089774;28;20446;-71
2021/05/15 01:19:01;;;;;;;6.70;2.03;;;;;;;;;;2090052;28;20439;-70
2021/05/15 01:20:01;;;;;;;4.60;2.00;;;;;;;;;;2089216;28;20036;-70
2021/05/15 01:21:02;;;;;;;3.55;2.05;;;;;;;;;;2090087;28;20032;-70
2021/05/15 01:22:06;;;;;;;4.13;1.95;;;;;;;;;;2089240;28;20088;-71
2021/05/15 01:23:06;;;;;;;3.53;2.15;;;;;;;;;;2083034;28;20028;-71
2021/05/15 01:24:07;;;;;;;4.90;2.15;;;;;;;;;;2089737;28;20392;-71
2021/05/15 01:25:07;;;;;;;5.93;2.40;;;;;;;;;;2090021;28;20029;-70
2021/05/15 01:26:12;;;;;;;3.72;2.30;;;;;;;;;;2089861;28;20468;-70
2021/05/15 01:27:14;;;;;;;6.13;2.08;;;;;;;;;;2083163;28;20032;-70
2021/05/15 01:28:14;;;;;;;4.57;2.17;;;;;;;;;;2089069;28;20044;-70
2021/05/15 01:29:14;;;;;;;4.70;1.70;;;;;;;;;;2089239;28;20025;-70
2021/05/15 01:30:15;;;;;;;3.35;1.90;;;;;;;;;;2089787;28;20032;-70
2021/05/15 01:31:15;;;;;;;4.45;2.15;;;;;;;;;;2089796;28;20048;-70
2021/05/15 01:32:16;;;;;;;3.88;1.88;;;;;;;;;;2089689;28;20025;-70
2021/05/15 01:33:16;;;;;;;4.72;2.17;;;;;;;;;;2089912;28;20488;-70
2021/05/15 01:34:16;;;;;;;3.50;1.75;;;;;;;;;;2089574;28;20108;-71
2021/05/15 01:35:17;;;;;;;3.72;2.05;;;;;;;;;;2089333;28;20025;-70
2021/05/15 01:36:18;;;;;;;5.25;1.90;;;;;;;;;;2089693;28;20028;-70
2021/05/15 01:37:18;;;;;;;3.05;1.73;;;;;;;;;;2089930;28;20025;-70
2021/05/15 01:38:19;;;;;;;3.67;1.98;;;;;;;;;;2089692;28;20099;-70
2021/05/15 01:39:19;;;;;;;5.10;2.10;;;;;;;;;;2089700;28;20031;-70
2021/05/15 01:40:19;;;;;;;3.65;2.30;;;;;;;;;;2083050;28;20037;-70
2021/05/15 01:41:20;;;;;;;3.53;1.98;;;;;;;;;;2089862;28;20032;-70
2021/05/15 01:42:21;;;;;;;2.97;1.85;;;;;;;;;;2089373;28;20025;-70
2021/05/15 01:43:21;;;;;;;3.08;1.80;;;;;;;;;;2089705;28;20156;-70
2021/05/15 01:44:21;;;;;;;3.97;2.00;;;;;;;;;;2089452;28;20029;-71
2021/05/15 01:45:25;;;;;;;4.72;1.90;;;;;;;;;;2089789;28;20469;-70
2021/05/15 01:46:26;;;;;;;4.03;2.13;;;;;;;;;;2089590;28;20522;-69
2021/05/15 01:47:27;;;;;;;4.72;1.98;;;;;;;;;;2089788;28;20032;-69
2021/05/15 01:48:27;;;;;;;3.78;1.80;;;;;;;;;;2089660;28;20182;-69
2021/05/15 01:49:27;;;;;;;4.15;2.10;;;;;;;;;;2089275;28;20111;-70
2021/05/15 01:50:28;;;;;;;3.13;1.75;;;;;;;;;;2089431;28;20107;-69
2021/05/15 01:51:28;;;;;;;4.15;2.00;;;;;;;;;;2089625;28;20075;-69
2021/05/15 01:52:28;;;;;;;3.22;2.00;;;;;;;;;;2088956;28;20041;-69
2021/05/15 01:53:36;;;;;;;3.45;2.00;;;;;;;;;;2089008;28;20369;-69
2021/05/15 01:54:36;;;;;;;6.03;1.90;;;;;;;;;;2089566;28;20075;-69
2021/05/15 01:55:36;;;;;;;3.25;1.88;;;;;;;;;;2089612;28;20037;-69
2021/05/15 01:56:37;;;;;;;3.30;1.70;;;;;;;;;;2089587;28;20021;-70
2021/05/15 01:57:37;;;;;;;3.97;1.85;;;;;;;;;;2089220;28;20611;-69
2021/05/15 01:58:38;;;;;;;2.55;1.90;;;;;;;;;;2089750;28;20383;-69
2021/05/15 01:59:40;;;;;;;4.05;2.10;;;;;;;;;;2089548;28;20033;-70
2021/05/15 02:00:40;;;;;;;3.92;2.15;;;;;;;;;;2089608;28;20451;-69
2021/05/15 02:01:41;;;;;;;4.47;1.85;;;;;;;;;;2089552;28;20037;-69
2021/05/15 02:02:41;;;;;;;4.20;2.00;;;;;;;;;;2089661;28;20465;-69
2021/05/15 02:03:42;;;;;;;3.10;1.95;;;;;;;;;;2087574;28;20064;-69
2021/05/15 02:04:42;;;;;;;5.38;2.15;;;;;;;;;;2087953;28;20033;-69
2021/05/15 02:05:43;;;;;;;3.47;1.90;;;;;;;;;;2088207;28;20028;-69
2021/05/15 02:06:43;;;;;;;4.35;2.05;;;;;;;;;;2089381;28;20119;-69
2021/05/15 02:07:43;;;;;;;3.20;2.08;;;;;;;;;;2089485;28;20040;-69
2021/05/15 02:08:46;;;;;;;2.45;1.88;;;;;;;;;;2089571;28;20108;-69
2021/05/15 02:09:46;;;;;;;4.53;1.95;;;;;;;;;;2089474;28;20104;-69
2021/05/15 02:10:47;;;;;;;3.50;1.98;;;;;;;;;;2089436;28;20041;-69
2021/05/15 02:11:48;;;;;;;4.88;2.30;;;;;;;;;;2089097;28;20064;-69
2021/05/15 02:12:48;;;;;;;4.18;2.17;;;;;;;;;;2089542;28;20016;-69
2021/05/15 02:13:49;;;;;;;4.60;2.13;;;;;;;;;;2089476;28;20428;-69
2021/05/15 02:14:49;;;;;;;2.70;1.70;;;;;;;;;;2097000;28;20494;-69
2021/05/15 02:15:50;;;;;;;3.28;1.80;;;;;;;;;;2097102;28;20024;-69
2021/05/15 02:16:50;;;;;;;3.55;2.05;;;;;;;;;;2089473;28;20025;-69
2021/05/15 02:17:50;;;;;;;3.47;2.13;;;;;;;;;;2089449;28;20028;-69
2021/05/15 02:18:51;;;;;;;3.47;1.83;;;;;;;;;;2089479;28;20041;-69
2021/05/15 02:19:51;;;;;;;3.53;1.98;;;;;;;;;;2089039;28;20499;-69
2021/05/15 02:20:52;;;;;;;3.88;1.95;;;;;;;;;;2089299;28;20411;-69
2021/05/15 02:21:52;;;;;;;3.80;2.00;;;;;;;;;;2089574;28;20076;-69
2021/05/15 02:22:52;;;;;;;4.40;1.92;;;;;;;;;;2089558;28;20037;-69
2021/05/15 02:23:53;;;;;;;3.67;2.08;;;;;;;;;;2089543;28;20052;-69
2021/05/15 02:24:53;;;;;;;3.17;2.00;;;;;;;;;;2089287;28;20507;-69
2021/05/15 02:25:54;;;;;;;4.70;2.10;;;;;;;;;;2089519;28;20484;-69
2021/05/15 02:26:54;;;;;;;3.65;2.05;;;;;;;;;;2088942;28;20365;-69
2021/05/15 02:27:55;;;;;;;2.95;2.00;;;;;;;;;;2089451;28;20048;-70
2021/05/15 02:28:55;;;;;;;3.17;2.30;;;;;;;;;;2089258;28;20044;-69
2021/05/15 02:29:55;;;;;;;3.25;2.10;;;;;;;;;;2089464;28;20645;-69
2021/05/15 02:30:56;;;;;;;3.15;2.13;;;;;;;;;;2089152;28;20029;-69
2021/05/15 02:31:56;;;;;;;2.65;1.83;;;;;;;;;;2089335;28;20029;-69
2021/05/15 02:32:56;;;;;;;3.10;2.17;;;;;;;;;;2089230;28;20029;-69
2021/05/15 02:33:57;;;;;;;3.97;2.00;;;;;;;;;;2089002;28;20079;-69
2021/05/15 02:34:57;;;;;;;4.07;2.38;;;;;;;;;;2089038;28;20545;-69
2021/05/15 02:35:57;;;;;;;3.78;2.00;;;;;;;;;;2089198;28;20491;-69
2021/05/15 02:36:58;;;;;;;3.63;2.08;;;;;;;;;;2089041;28;20041;-69
2021/05/15 02:38:00;;;;;;;3.30;2.20;;;;;;;;;;2096977;28;20135;-69
2021/05/15 02:39:01;;;;;;;5.40;2.33;;;;;;;;;;2096776;28;20541;-69
2021/05/15 02:40:02;;;;;;;3.55;2.15;;;;;;;;;;2089270;28;20067;-69
2021/05/15 02:41:02;;;;;;;4.40;2.55;;;;;;;;;;2089173;28;20094;-69
2021/05/15 02:42:02;;;;;;;4.13;2.17;;;;;;;;;;2088939;28;20037;-69
2021/05/15 02:43:03;;;;;;;3.50;2.10;;;;;;;;;;2089005;28;20049;-69
2021/05/15 02:44:04;;;;;;;4.18;2.30;;;;;;;;;;2089350;28;20037;-69
2021/05/15 02:45:05;;;;;;;3.58;2.10;;;;;;;;;;2089202;28;20502;-69
2021/05/15 02:46:06;;;;;;;4.47;2.30;;;;;;;;;;2089293;28;20082;-69
2021/05/15 02:47:06;;;;;;;5.38;2.35;;;;;;;;;;2089231;28;20480;-69
2021/05/15 02:48:06;;;;;;;4.22;2.42;;;;;;;;;;2089274;28;20017;-69
2021/05/15 02:49:07;;;;;;;4.20;2.40;;;;;;;;;;2088761;28;20383;-69
2021/05/15 02:50:08;;;;;;;3.42;2.17;;;;;;;;;;2089151;28;20021;-69
2021/05/15 02:51:09;;;;;;;4.45;2.40;;;;;;;;;;2089169;28;20039;-69
2021/05/15 02:52:09;;;;;;;5.50;2.42;;;;;;;;;;2089270;28;20091;-69
2021/05/15 02:53:09;;;;;;;4.25;2.20;;;;;;;;;;2089238;28;20051;-69
2021/05/15 02:54:10;;;;;;;3.65;2.28;;;;;;;;;;2089150;28;20063;-69
2021/05/15 02:55:11;;;;;;;3.65;2.35;;;;;;;;;;2089242;28;21066;-69
2021/05/15 02:56:11;;;;;;;4.07;2.25;;;;;;;;;;2088718;28;20053;-69
2021/05/15 02:57:12;;;;;;;3.53;2.53;;;;;;;;;;2089320;28;20017;-69
2021/05/15 02:58:16;;;;;;;4.88;2.67;;;;;;;;;;2089085;28;20099;-69
2021/05/15 02:59:16;;;;;;;3.53;2.17;;;;;;;;;;2089309;28;20072;-69
2021/05/15 03:00:17;;;;;;;3.70;2.30;;;;;;;;;;2089019;28;20071;-68
2021/05/15 03:01:19;;;;;;;4.40;2.40;;;;;;;;;;2089287;28;20029;-69
2021/05/15 03:02:19;;;;;;;3.78;2.50;;;;;;;;;;2089003;28;20040;-69
2021/05/15 03:03:20;;;;;;;5.47;2.53;;;;;;;;;;2089175;28;20017;-69
2021/05/15 03:04:20;;;;;;;3.80;2.53;;;;;;;;;;2088847;28;20090;-70
2021/05/15 03:05:22;;;;;;;5.90;2.45;;;;;;;;;;2089070;28;20488;-69
2021/05/15 03:06:22;;;;;;;4.22;2.47;;;;;;;;;;2088927;28;20108;-70
2021/05/15 03:07:22;;;;;;;5.03;2.67;;;;;;;;;;2088501;28;20032;-70
2021/05/15 03:08:23;;;;;;;3.42;2.38;;;;;;;;;;2088406;28;20037;-69
2021/05/15 03:09:23;;;;;;;4.82;2.90;;;;;;;;;;2089158;28;20472;-70
2021/05/15 03:10:24;;;;;;;4.40;2.85;;;;;;;;;;2089076;28;20107;-70
2021/05/15 03:11:25;;;;;;;4.50;2.55;;;;;;;;;;2088707;28;20045;-70
2021/05/15 03:12:25;;;;;;;4.32;2.55;;;;;;;;;;2089046;28;20032;-69
2021/05/15 03:13:25;;;;;;;4.20;2.75;;;;;;;;;;2089219;28;20029;-69
2021/05/15 03:14:26;;;;;;;6.63;2.90;;;;;;;;;;2089020;28;20125;-69
2021/05/15 03:15:26;;;;;;;4.75;2.95;;;;;;;;;;2089163;28;20376;-70
2021/05/15 03:16:26;;;;;;;4.93;2.90;;;;;;;;;;2088744;28;20094;-70
2021/05/15 03:17:27;;;;;;;4.97;3.30;;;;;;;;;;2088568;28;20029;-70
2021/05/15 03:18:27;;;;;;;4.82;2.80;;;;;;;;;;2088721;28;20039;-70
2021/05/15 03:19:27;;;;;;;5.07;2.78;;;;;;;;;;2089143;28;20025;-69
2021/05/15 03:20:28;;;;;;;5.07;3.05;;;;;;;;;;2088660;28;20064;-69
2021/05/15 03:21:28;;;;;;;4.30;2.95;;;;;;;;;;2089191;28;20041;-68
2021/05/15 03:22:29;;;;;;;5.28;2.60;;;;;;;;;;2089006;28;20029;-69
2021/05/15 03:23:29;;;;;;;4.05;2.70;;;;;;;;;;2089161;28;20043;-69
2021/05/15 03:24:30;;;;;;;4.57;2.97;;;;;;;;;;2088915;28;20057;-68
2021/05/15 03:25:30;;;;;;;4.07;2.40;;;;;;;;;;2089065;28;20357;-68
2021/05/15 03:26:31;;;;;;;3.78;2.70;;;;;;;;;;2088734;28;20063;-68
2021/05/15 03:27:31;;;;;;;4.82;2.70;;;;;;;;;;2096839;28;20025;-68
2021/05/15 03:28:32;;;;;;;4.97;2.83;;;;;;;;;;2096552;28;20476;-68
2021/05/15 03:29:32;;;;;;;4.65;2.63;;;;;;;;;;2089012;28;20029;-68
2021/05/15 03:30:32;;;;;;;4.57;2.70;;;;;;;;;;2088972;28;20423;-68
2021/05/15 03:31:33;;;;;;;3.70;2.58;;;;;;;;;;2089119;28;20102;-69
2021/05/15 03:32:33;;;;;;;4.95;2.85;;;;;;;;;;2088991;28;20044;-68
2021/05/15 03:33:34;;;;;;;4.43;2.83;;;;;;;;;;2088627;28;20044;-68
2021/05/15 03:34:34;;;;;;;4.90;2.70;;;;;;;;;;2096820;28;20059;-68
2021/05/15 03:35:34;;;;;;;4.03;2.55;;;;;;;;;;2096459;28;20554;-68
2021/05/15 03:36:35;;;;;;;4.20;2.45;;;;;;;;;;2089052;28;20067;-68
2021/05/15 03:37:35;;;;;;;4.68;2.60;;;;;;;;;;2088904;28;20475;-68
2021/05/15 03:38:36;;;;;;;4.90;2.83;;;;;;;;;;2089048;28;20055;-68
2021/05/15 03:39:36;;;;;;;4.80;2.70;;;;;;;;;;2089005;28;20428;-69
2021/05/15 03:40:37;;;;;;;4.35;2.78;;;;;;;;;;2088696;28;20070;-68
2021/05/15 03:41:37;;;;;;;4.82;2.88;;;;;;;;;;2088983;28;20036;-68
2021/05/15 03:42:38;;;;;;;6.95;3.15;;;;;;;;;;2088959;28;20029;-69
2021/05/15 03:43:38;;;;;;;5.95;2.97;;;;;;;;;;2088743;28;20060;-69
2021/05/15 03:44:39;;;;;;;3.78;2.47;;;;;;;;;;2096621;28;20516;-69
2021/05/15 03:45:39;;;;;;;4.85;3.00;;;;;;;;;;2096639;28;20450;-69
2021/05/15 03:46:39;;;;;;;6.00;3.10;;;;;;;;;;2088836;28;20060;-69
2021/05/15 03:47:40;;;;;;;4.63;2.88;;;;;;;;;;2088963;28;20048;-68
2021/05/15 03:48:41;;;;;;;5.07;2.90;;;;;;;;;;2088603;28;20036;-69
2021/05/15 03:49:41;;;;;;;3.35;2.40;;;;;;;;;;2088958;28;20105;-68
2021/05/15 03:50:41;;;;;;;4.43;2.80;;;;;;;;;;2088687;28;20033;-68
2021/05/15 03:51:42;;;;;;;4.68;2.63;;;;;;;;;;2089031;28;20029;-68
2021/05/15 03:52:43;;;;;;;4.97;2.90;;;;;;;;;;2088973;28;20055;-69
2021/05/15 03:53:43;;;;;;;4.95;2.65;;;;;;;;;;2088923;28;20068;-69
2021/05/15 03:54:43;;;;;;;5.07;2.95;;;;;;;;;;2089026;28;20057;-68
2021/05/15 03:55:44;;;;;;;3.97;2.60;;;;;;;;;;2088341;28;20032;-68
2021/05/15 03:56:44;;;;;;;4.75;3.20;;;;;;;;;;2089036;28;20041;-69
2021/05/15 03:57:45;;;;;;;3.80;2.78;;;;;;;;;;2088941;28;20468;-68
2021/05/15 03:58:45;;;;;;;4.10;2.67;;;;;;;;;;2088868;28;20021;-68
2021/05/15 03:59:45;;;;;;;6.07;2.80;;;;;;;;;;2089011;28;20029;-68
2021/05/15 04:00:46;;;;;;;4.97;2.83;;;;;;;;;;2089060;28;20053;-68
2021/05/15 04:01:46;;;;;;;5.85;2.85;;;;;;;;;;2088561;28;20083;-70
2021/05/15 04:02:48;;;;;;;5.22;3.00;;;;;;;;;;2088456;28;20416;-69
2021/05/15 04:03:49;;;;;;;5.63;3.03;;;;;;;;;;2088241;28;20488;-70
2021/05/15 04:04:52;;;;;;;6.65;3.47;;;;;;;;;;2088124;28;20029;-68
2021/05/15 04:05:52;;;;;;;5.47;3.30;;;;;;;;;;2088927;28;20037;-68
2021/05/15 04:06:53;;;;;;;5.15;3.20;;;;;;;;;;2088746;28;20513;-68
2021/05/15 04:07:53;;;;;;;4.72;3.00;;;;;;;;;;2096558;28;20472;-68
2021/05/15 04:08:53;;;;;;;7.03;2.97;;;;;;;;;;2096340;28;20499;-68
2021/05/15 04:09:54;;;;;;;5.50;3.08;;;;;;;;;;2088315;28;20462;-67
2021/05/15 04:10:54;;;;;;;4.72;3.03;;;;;;;;;;2087689;28;20029;-67
2021/05/15 04:11:54;;;;;;;3.90;2.65;;;;;;;;;;2088272;28;20492;-67
2021/05/15 04:14:01;;;;;;;4.68;2.63;;;;;;;;;;2096554;28;20464;-70
2021/05/15 04:15:07;;;;;;;9.65;3.60;;;;;;;;;;2096193;28;20067;-69
2021/05/15 04:16:15;;;;;;;8.55;3.92;;;;;;;;;;2088886;28;20021;-69
2021/05/15 04:17:19;;;;;;;7.38;4.30;;;;;;;;;;2083073;28;20447;-68
2021/05/15 04:18:20;;;;;;;6.43;3.65;;;;;;;;;;2088641;28;20472;-69
2021/05/15 04:19:20;;;;;;;8.00;4.00;;;;;;;;;;2088791;28;20033;-68
2021/05/15 04:20:20;;;;;;;6.47;3.88;;;;;;;;;;2088638;28;20071;-69
2021/05/15 04:21:21;;;;;;;5.32;3.60;;;;;;;;;;2088878;28;20090;-69
2021/05/15 04:22:21;;;;;;;7.82;3.80;;;;;;;;;;2088946;28;20017;-68
2021/05/15 04:23:21;;;;;;;7.35;3.80;;;;;;;;;;2088354;28;20179;-68
2021/05/15 04:24:24;;;;;;;10.25;4.50;;;;;;;;;;2088224;28;20071;-68
2021/05/15 04:25:24;;;;;;;7.47;4.10;;;;;;;;;;2088485;28;20369;-68
2021/05/15 04:26:24;;;;;;;8.00;4.03;;;;;;;;;;2089009;28;20063;-68
2021/05/15 04:27:26;;;;;;;7.85;3.90;;;;;;;;;;2088842;28;20530;-68
2021/05/15 04:28:27;;;;;;;6.43;3.83;;;;;;;;;;2089445;28;20426;-68
2021/05/15 04:29:27;;;;;;;8.23;4.38;;;;;;;;;;2090233;28;20040;-69
2021/05/15 04:30:27;;;;;;;5.72;4.10;;;;;;;;;;2090312;28;20396;-68
2021/05/15 04:31:28;;;;;;;6.80;4.25;;;;;;;;;;2090219;28;20442;-68
2021/05/15 04:32:29;;;;;;;7.20;3.92;;;;;;;;;;2089977;28;20915;-68
2021/05/15 04:33:29;;;;;;;6.60;4.07;;;;;;;;;;2090279;28;20052;-69
2021/05/15 04:34:30;;;;;;;6.60;3.80;;;;;;;;;;2090440;28;20104;-68
2021/05/15 04:35:32;;;;;;;7.32;4.13;;;;;;;;;;2090108;28;20484;-68
2021/05/15 04:36:32;;;;;;;6.68;4.20;;;;;;;;;;2090375;28;20043;-68
2021/05/15 04:37:33;;;;;;;6.55;4.18;;;;;;;;;;2090205;28;20430;-68
2021/05/15 04:38:33;;;;;;;8.27;3.97;;;;;;;;;;2089800;28;20513;-68
2021/05/15 04:39:34;;;;;;;6.93;3.85;;;;;;;;;;2089478;28;20491;-68
2021/05/15 04:40:34;;;;;;;8.75;4.25;;;;;;;;;;2090207;28;20464;-68
2021/05/15 04:41:35;;;;;;;7.82;4.30;;;;;;;;;;2090302;28;20052;-68
2021/05/15 04:42:38;;;;;;;7.97;4.20;;;;;;;;;;2090098;28;20041;-68
2021/05/15 04:43:39;;;;;;;6.25;3.83;;;;;;;;;;2090008;28;20041;-68
2021/05/15 04:44:39;;;;;;;5.30;3.47;;;;;;;;;;2090101;28;20037;-68
2021/05/15 04:45:40;;;;;;;7.30;4.00;;;;;;;;;;2089561;28;20044;-68
2021/05/15 04:46:40;;;;;;;7.68;4.07;;;;;;;;;;2089623;28;20033;-68
2021/05/15 04:47:40;;;;;;;5.88;3.45;;;;;;;;;;2089859;28;20416;-68
2021/05/15 04:48:44;;;;;;;6.78;4.30;;;;;;;;;;2089418;28;20064;-69
2021/05/15 04:49:45;;;;;;;5.60;3.72;;;;;;;;;;2089654;28;20462;-68
2021/05/15 04:50:45;;;;;;;6.32;3.75;;;;;;;;;;2089720;28;20041;-68
2021/05/15 04:51:45;;;;;;;6.28;3.67;;;;;;;;;;2090258;28;20040;-69
2021/05/15 04:52:46;;;;;;;8.95;3.60;;;;;;;;;;2090027;28;20087;-69
2021/05/15 04:53:46;;;;;;;6.53;3.53;;;;;;;;;;2090295;28;20398;-70
2021/05/15 04:54:46;;;;;;;9.05;3.90;;;;;;;;;;2089513;28;20048;-70
2021/05/15 04:55:47;;;;;;;6.85;4.00;;;;;;;;;;2090163;28;20037;-68
2021/05/15 04:56:47;;;;;;;6.03;4.10;;;;;;;;;;2090038;28;20110;-70
2021/05/15 04:57:47;;;;;;;9.05;4.47;;;;;;;;;;2090179;28;20576;-70
2021/05/15 04:58:48;;;;;;;7.07;3.65;;;;;;;;;;2089988;28;20392;-70
2021/05/15 04:59:48;;;;;;;6.95;4.00;;;;;;;;;;2090103;28;20476;-70
2021/05/15 05:00:50;;;;;;;6.10;3.90;;;;;;;;;;2090003;28;20041;-70
2021/05/15 05:01:50;;;;;;;7.50;4.10;;;;;;;;;;2089787;28;20025;-71
2021/05/15 05:02:51;;;;;;;5.28;3.42;;;;;;;;;;2089904;28;20025;-70
2021/05/15 05:03:52;;;;;;;7.80;3.90;;;;;;;;;;2090080;28;20094;-70
2021/05/15 05:04:52;;;;;;;6.45;3.90;;;;;;;;;;2089835;28;20054;-70
2021/05/15 05:05:52;;;;;;;6.28;4.05;;;;;;;;;;2089989;28;20103;-70
2021/05/15 05:06:53;;;;;;;6.43;3.83;;;;;;;;;;2089978;28;20040;-70
2021/05/15 05:07:53;;;;;;;6.60;4.03;;;;;;;;;;2090004;28;20107;-70
2021/05/15 05:08:53;;;;;;;7.13;4.05;;;;;;;;;;2089872;28;20041;-69
2021/05/15 05:09:54;;;;;;;5.47;3.45;;;;;;;;;;2089865;28;20171;-68
2021/05/15 05:10:54;;;;;;;5.45;3.78;;;;;;;;;;2089878;28;20052;-69
2021/05/15 05:11:55;;;;;;;6.03;4.00;;;;;;;;;;2089395;28;20412;-69
2021/05/15 05:12:55;;;;;;;6.60;4.30;;;;;;;;;;2089266;28;20569;-69
2021/05/15 05:13:55;;;;;;;7.20;4.00;;;;;;;;;;2090078;28;20537;-70
2021/05/15 05:14:56;;;;;;;7.57;3.90;;;;;;;;;;2089128;28;20029;-70
2021/05/15 05:15:56;;;;;;;11.40;4.25;;;;;;;;;;2089459;28;20033;-70
2021/05/15 05:16:56;;;;;;;6.95;3.78;;;;;;;;;;2096798;28;20181;-69
2021/05/15 05:17:57;;;;;;;6.15;3.97;;;;;;;;;;2097674;28;20024;-70
2021/05/15 05:18:57;;;;;;;7.43;4.43;;;;;;;;;;2089848;28;20480;-69
2021/05/15 05:19:57;;;;;;;16.02;5.30;;;;;;;;;;2089134;28;20052;-70
2021/05/15 05:20:58;;;;;;;15.70;8.35;;;;;;;;;;2089304;28;20573;-69
2021/05/15 05:22:02;;;;;;;11.23;6.40;;;;;;;;;;2089791;28;20057;-69
2021/05/15 05:23:02;;;;;;;9.95;6.28;;;;;;;;;;2089270;28;20508;-69
2021/05/15 05:24:03;;;;;;;14.20;8.18;;;;;;;;;;2088870;28;20074;-69
2021/05/15 05:25:06;;;;;;;17.40;10.73;;;;;;;;;;2089950;28;20049;-69
2021/05/15 05:26:06;;;;;;;24.38;13.50;;;;;;;;;;2089719;28;20175;-70
2021/05/15 05:27:09;;;;;;;36.17;13.30;;;;;;;;;;2089916;28;20021;-70
2021/05/15 05:28:09;;;;;;;22.15;10.13;;;;;;;;;;2089633;28;20124;-70
2021/05/15 05:29:10;;;;;;;13.90;7.45;;;;;;;;;;2089895;28;20025;-69
2021/05/15 05:30:11;;;;;;;12.80;7.65;;;;;;;;;;2089649;28;20044;-69
2021/05/15 05:31:11;;;;;;;17.45;6.90;;;;;;;;;;2089582;28;20115;-71
2021/05/15 05:32:12;;;;;;;13.90;6.80;;;;;;;;;;2089374;28;20497;-71
2021/05/15 05:33:12;;;;;;;12.50;6.78;;;;;;;;;;2089970;28;20494;-70
2021/05/15 05:34:12;;;;;;;10.80;7.22;;;;;;;;;;2089586;28;20590;-71
2021/05/15 05:35:13;;;;;;;15.35;7.68;;;;;;;;;;2089710;28;20365;-70
2021/05/15 05:36:13;;;;;;;15.65;7.35;;;;;;;;;;2089624;28;20025;-71
2021/05/15 05:37:14;;;;;;;10.40;7.13;;;;;;;;;;2089896;28;20087;-71
2021/05/15 05:38:14;;;;;;;12.77;6.78;;;;;;;;;;2089701;28;20021;-71
2021/05/15 05:39:18;;;;;;;9.85;6.35;;;;;;;;;;2089416;28;20534;-71
2021/05/15 05:40:18;;;;;;;10.93;6.78;;;;;;;;;;2088827;28;20128;-72
2021/05/15 05:41:20;;;;;;;10.68;5.90;;;;;;;;;;2089288;28;20033;-71
2021/05/15 05:42:21;;;;;;;9.75;6.20;;;;;;;;;;2089025;28;20025;-71
2021/05/15 05:43:21;;;;;;;10.05;5.90;;;;;;;;;;2089615;28;20191;-71
2021/05/15 05:44:21;;;;;;;11.35;6.43;;;;;;;;;;2089671;28;20114;-70
2021/05/15 05:45:22;;;;;;;11.50;6.22;;;;;;;;;;2089778;28;20040;-71
2021/05/15 05:46:22;;;;;;;9.65;6.20;;;;;;;;;;2089308;28;20090;-71
2021/05/15 05:47:22;;;;;;;8.88;5.68;;;;;;;;;;2089778;28;20021;-71
2021/05/15 05:48:23;;;;;;;10.00;5.53;;;;;;;;;;2089585;28;20025;-71
2021/05/15 05:49:23;;;;;;;13.95;5.88;;;;;;;;;;2089126;28;20495;-70
2021/05/15 05:50:24;;;;;;;14.30;5.15;;;;;;;;;;2088826;28;20009;-70
2021/05/15 05:51:24;;;;;;;10.15;6.07;;;;;;;;;;2097341;28;20040;-71
2021/05/15 05:52:24;;;;;;;11.60;5.47;;;;;;;;;;2089493;28;20039;-70
2021/05/15 05:53:25;;;;;;;10.20;5.57;;;;;;;;;;2089060;28;20487;-71
2021/05/15 05:54:25;;;;;;;10.20;5.57;;;;;;;;;;2088599;28;20033;-71
2021/05/15 05:55:25;;;;;;;8.35;5.50;;;;;;;;;;2087769;28;20116;-71
2021/05/15 05:56:26;;;;;;;8.48;5.20;;;;;;;;;;2088863;28;20033;-71
2021/05/15 05:57:26;;;;;;;7.10;4.97;;;;;;;;;;2080751;28;20021;-71
2021/05/15 05:58:26;;;;;;;9.93;5.10;;;;;;;;;;2088789;28;20055;-71
2021/05/15 05:59:27;;;;;;;9.50;4.90;;;;;;;;;;2089763;28;20025;-71
2021/05/15 06:00:27;;;;;;;9.70;5.05;;;;;;;;;;2089537;28;20447;-70
2021/05/15 06:01:27;;;;;;;8.00;4.90;;;;;;;;;;2089216;28;20404;-71
2021/05/15 06:02:28;;;;;;;8.52;5.03;;;;;;;;;;2089319;28;20056;-71
2021/05/15 06:03:28;;;;;;;7.78;5.07;;;;;;;;;;2096106;28;20070;-71
2021/05/15 06:04:28;;;;;;;9.90;5.45;;;;;;;;;;2097291;28;20531;-71
2021/05/15 06:05:29;;;;;;;8.35;4.97;;;;;;;;;;2089264;28;20031;-71